Malé International Airport
VRMM : now visible

Airfield :











YOU CAN JOIN US ON...

 
LOGIN :

Register | Disclaimer

   EN    FR    IT 

 









Legend :    VFR   Marginal VFR   IFR   Intensive IFR   Very Intensive IFR
Visi :
Ceiling :
>= 8 km
>= 3000ft
5 to 8 km
1000 to 3000 ft
1500m to 5 km
500 to 1000 ft
800 to 1500m
200 to 500 ft
< 800m
< 200 ft
Symbols :   Thunderstorms  Fog  Heavy snow  Heavy precipitations  Wind > 20 kt






- Airport Elevation : 6 ft
- IATA code : MLE


VRMM - Malé International

CURRENT METAR :
  • 270600Z 25013KT 9999 SCT017 FEW018CB BKN270 30/27 Q1012 CB SW,W,NW TEMPO 5000 SHRA

EXPIRED METARs :
  • 270500Z 23009KT 9999 SCT017 FEW018CB BKN270 30/27 Q1012 CB SW,W,NW TEMPO 5000 -SHRA
  • 270400Z 26004KT 9999 SCT017 FEW018CB BKN270 30/25 Q1012 CB SW,W TEMPO 5000 SHRA

TAF TAF VRMM
Valid from the 27 at 06:00 until the 28 at 12:00 UTC


270500Z 2706/2812 25013KT 9999 SCT018TCU
TEMPO 2706/2712 4000 SHRA SCT017CB
VRMF FIR / Asia



MET'MAP, your aeronautical weather chart ! - Copyright ORBIFLY December 2007 - Disclaimer

ORBIFLY MET'MAP TEAM :

Programming & Development : Alexandra Zaïnal
Concept & original design : Baudouin d'Aumeries
Assistance for programming : Marc-Olivier Méhu
Technical & hardware support : Manuel Goepfert

Contact : metmap@orbifly.com




SOURCES & CREDITS :

   NOAA       Earth
Advisory